Terminal Aerodrome Forecast
Issued by NWS

Home | Current Version | Previous Version | Text Only | Print | Product List | Glossary On
Versions: 1 2 3 4 5 6 7 8 9 10 11 12 13 14 15 16 17 18 19 20
000
FTUS41 KBGM 250500
TAFELM
TAF
KELM 250538Z 2506/2606 VRB03KT P6SM SKC
      TEMPO 2506/2508 3SM BR
     FM250800 00000KT 2SM BR SCT002
      TEMPO 2508/2512 1/2SM FG VV002
     FM251300 VRB03KT P6SM SKC
     FM251500 26005KT P6SM FEW045
     FM260000 VRB03KT P6SM BKN200=

USA.gov is the U.S. government's official web portal to all federal, state and local government web resources and services.